Portada
METAR-TAF:

METAR-TAF

Aeropuertos :

Bou Saâda, Argelia

latitud: 35-20N, longitud: 004-12E, altitud: 461 m

Observación

El informe se hizo hace 20 minutos, a las 11:00 UTC
Viento 1 kt del noreste
Temperatura 13°C
Humedad 58%
Presión 1022 hPa
Visibilidad 10 km o más
sin nubes por debajo de 1500 m y sin presencia de cumulonimbus.

METAR: DAAD 231100Z 04001KT CAVOK 13/05 Q1022

Hora: 12:20 (11:20 UTC)

Pronóstico

El informe se hizo hace 3 horas y 20 minutos, a las 08:00 UTC
Pronóstico válido del 23 a las 09 UTC al 23 a las 18 UTC
Viento 8 kt del oeste
Visibilidad 10 km o más
sin nubes por debajo de 1500 m y sin presencia de cumulonimbus.

TAF: DAAD 230800Z 2309/2318 28008KT CAVOK

Observaciones y pronósticos meteorológicos de más de 4000 aeropuertos (mensajes METAR y TAF).

Los puntos amarillos y rojos representan las estaciones disponibles.

Ponga el ratón en el punto deseado para ver el nombre de la estación.

Haga clic para ver las observaciones y los pronósticos meteorológicos.

Para cambiar el mapa : haga clic en los botones verdes con una cruz de color negro para hacer un zoom, en el botón verde con un guión para alejar o en las flechas verdes para mapas adyacentes.


METAR-TAF: